Time;durP1;ratioP1;P1;durP2;ratioP2;P2;SDS_P1;SDS_P2;PMS_P1;PMS_P2;Temp;Humidity;BMP_temperature;BMP_pressure;BME280_temperature;BME280_humidity;BME280_pressure;Samples;Min_cycle;Max_cycle;Signal;HPM_P1;HPM_P2
2021/01/20 00:02:14;;;;;;;0.57;0.20;;;;;;;12.39;53.75;99805.03;4913320;28;127301;-63
2021/01/20 00:04:40;;;;;;;0.47;0.20;;;;;;;12.36;53.82;99811.03;4919561;28;127217;-62
2021/01/20 00:07:06;;;;;;;0.77;0.30;;;;;;;12.34;53.91;99815.13;4920237;28;122790;-63
2021/01/20 00:09:32;;;;;;;0.57;0.20;;;;;;;12.34;53.72;99817.81;4918943;28;128396;-63
2021/01/20 00:11:58;;;;;;;0.60;0.20;;;;;;;12.33;53.77;99808.13;4901121;28;127868;-62
2021/01/20 00:14:24;;;;;;;0.65;0.20;;;;;;;12.35;53.82;99822.94;4919918;28;127157;-62
2021/01/20 00:16:51;;;;;;;1.55;0.30;;;;;;;12.38;53.80;99821.53;4920117;28;97876;-62
2021/01/20 00:19:17;;;;;;;0.60;0.20;;;;;;;12.38;53.83;99821.53;4919011;28;109861;-63
2021/01/20 00:21:43;;;;;;;0.60;0.20;;;;;;;12.41;53.86;99831.75;4919494;28;126847;-63
2021/01/20 00:24:09;;;;;;;1.05;0.20;;;;;;;12.40;53.90;99830.97;4919723;28;128182;-62
2021/01/20 00:26:35;;;;;;;0.88;0.20;;;;;;;12.41;53.50;99826.34;4918295;28;110096;-62
2021/01/20 00:29:01;;;;;;;0.70;0.20;;;;;;;12.42;53.63;99838.81;4885014;28;126666;-62
2021/01/20 00:31:27;;;;;;;0.40;0.20;;;;;;;12.44;53.37;99833.88;4918808;28;128841;-62
2021/01/20 00:33:53;;;;;;;0.40;0.20;;;;;;;12.44;53.56;99831.97;4918940;28;126419;-63
2021/01/20 00:36:19;;;;;;;0.70;0.20;;;;;;;12.48;53.67;99824.09;4900178;28;123121;-63
2021/01/20 00:38:45;;;;;;;0.60;0.20;;;;;;;12.52;53.46;99827.81;4920091;28;127126;-63
2021/01/20 00:41:11;;;;;;;0.30;0.10;;;;;;;12.52;53.67;99822.41;4919063;28;127462;-63
2021/01/20 00:43:37;;;;;;;0.60;0.20;;;;;;;12.52;53.34;99817.78;4902221;28;115572;-63
2021/01/20 00:46:03;;;;;;;0.60;0.20;;;;;;;12.56;53.55;99830.72;4897843;28;121986;-62
2021/01/20 00:48:29;;;;;;;0.70;0.30;;;;;;;12.53;53.56;99827.50;4899332;28;127137;-63
2021/01/20 00:50:56;;;;;;;0.63;0.20;;;;;;;12.53;53.36;99835.59;4908188;28;127389;-63
2021/01/20 00:53:22;;;;;;;0.52;0.20;;;;;;;12.56;53.22;99828.03;4919977;28;98275;-62
2021/01/20 00:55:48;;;;;;;0.65;0.20;;;;;;;12.55;53.67;99840.75;4919440;28;121456;-63
2021/01/20 00:58:14;;;;;;;0.80;0.20;;;;;;;12.56;53.46;99836.94;4897435;28;128667;-63
2021/01/20 01:00:40;;;;;;;0.50;0.20;;;;;;;12.58;53.45;99839.34;4912197;28;113088;-63
2021/01/20 01:03:06;;;;;;;0.50;0.20;;;;;;;12.60;53.73;99837.16;4918980;28;112677;-62
2021/01/20 01:05:33;;;;;;;0.70;0.20;;;;;;;12.61;53.51;99838.75;4919719;28;120716;-64
2021/01/20 01:07:59;;;;;;;0.50;0.20;;;;;;;12.63;53.66;99840.06;4922122;28;98136;-62
2021/01/20 01:10:25;;;;;;;0.55;0.20;;;;;;;12.62;53.68;99846.56;4921652;28;128133;-63
2021/01/20 01:12:51;;;;;;;0.63;0.20;;;;;;;12.65;53.51;99831.66;4921724;28;127269;-63
2021/01/20 01:15:17;;;;;;;0.80;0.20;;;;;;;12.67;53.56;99837.56;4922712;28;97927;-63
2021/01/20 01:17:43;;;;;;;0.50;0.20;;;;;;;12.64;53.73;99833.53;4920284;28;98727;-62
2021/01/20 01:20:10;;;;;;;0.82;0.20;;;;;;;12.68;53.68;99828.34;4922563;28;128102;-63
2021/01/20 01:22:36;;;;;;;0.50;0.20;;;;;;;12.68;53.55;99836.47;4921414;28;115023;-62
2021/01/20 01:25:02;;;;;;;0.70;0.25;;;;;;;12.67;53.56;99829.47;4920341;28;123007;-64
2021/01/20 01:27:28;;;;;;;0.70;0.28;;;;;;;12.70;53.34;99826.97;4910474;28;116794;-62
2021/01/20 01:29:54;;;;;;;0.40;0.20;;;;;;;12.75;53.22;99835.00;4916700;28;128923;-64
2021/01/20 01:32:20;;;;;;;0.70;0.20;;;;;;;12.82;53.71;99831.91;4917548;28;126717;-62
2021/01/20 01:34:46;;;;;;;0.50;0.20;;;;;;;12.85;53.16;99830.50;4917807;28;124232;-64
2021/01/20 01:37:12;;;;;;;0.57;0.30;;;;;;;12.88;53.22;99829.91;4918629;28;104231;-62
2021/01/20 01:39:38;;;;;;;0.90;0.20;;;;;;;12.88;53.37;99830.69;4918088;28;126861;-62
2021/01/20 01:42:05;;;;;;;0.75;0.30;;;;;;;12.89;52.92;99824.22;4919349;28;125516;-63
2021/01/20 01:44:31;;;;;;;0.63;0.30;;;;;;;12.90;52.90;99825.00;4916482;28;107616;-63
2021/01/20 01:46:58;;;;;;;0.63;0.30;;;;;;;12.89;52.88;99837.75;4919358;28;128022;-62
2021/01/20 01:49:24;;;;;;;0.80;0.30;;;;;;;12.88;52.92;99832.59;4911717;28;108443;-64
2021/01/20 01:51:51;;;;;;;0.60;0.30;;;;;;;12.91;52.92;99840.13;4889908;28;121314;-63
2021/01/20 01:54:17;;;;;;;0.75;0.20;;;;;;;12.88;52.76;99829.91;4895142;28;110730;-63
2021/01/20 01:56:44;;;;;;;0.70;0.30;;;;;;;12.91;52.72;99838.22;4903593;28;105589;-64
2021/01/20 01:59:14;;;;;;;0.50;0.30;;;;;;;12.91;52.67;99832.03;4912687;28;127112;-63
2021/01/20 02:01:40;;;;;;;0.73;0.30;;;;;;;12.90;52.58;99836.63;4883822;28;113717;-64
2021/01/20 02:04:06;;;;;;;0.98;0.30;;;;;;;12.91;52.73;99835.53;4912570;28;121696;-62
2021/01/20 02:06:32;;;;;;;0.90;0.40;;;;;;;12.88;52.73;99827.19;4920713;28;125743;-62
2021/01/20 02:08:58;;;;;;;0.93;0.30;;;;;;;12.91;52.58;99832.81;4913253;28;127878;-62
2021/01/20 02:12:17;;;;;;;1.20;0.30;;;;;;;12.87;52.73;99839.91;4918099;28;128147;-64
2021/01/20 02:15:15;;;;;;;0.70;0.30;;;;;;;12.89;52.65;99842.31;4921621;28;97972;-64
2021/01/20 02:18:24;;;;;;;0.80;0.30;;;;;;;12.83;53.03;99830.81;4905582;28;98560;-62
2021/01/20 02:21:18;;;;;;;0.90;0.38;;;;;;;12.85;53.03;99836.72;4907965;28;98299;-63
2021/01/20 02:23:44;;;;;;;1.00;0.40;;;;;;;12.85;52.91;99831.31;4911352;28;98330;-62
2021/01/20 02:27:01;;;;;;;0.85;0.30;;;;;;;12.85;52.92;99835.91;4920309;28;98154;-62
2021/01/20 02:29:43;;;;;;;0.77;0.30;;;;;;;12.86;52.99;99835.63;4919570;28;117554;-64
2021/01/20 02:32:10;;;;;;;0.83;0.33;;;;;;;12.84;52.84;99827.00;4917010;28;99253;-63
2021/01/20 02:34:36;;;;;;;0.82;0.30;;;;;;;12.83;53.01;99819.19;4898473;28;98915;-63
2021/01/20 02:37:03;;;;;;;1.20;0.40;;;;;;;12.81;52.99;99824.91;4900700;28;109984;-62
2021/01/20 02:39:29;;;;;;;0.77;0.30;;;;;;;12.84;52.89;99826.19;4912924;28;128040;-62
2021/01/20 02:42:05;;;;;;;0.77;0.30;;;;;;;12.85;52.46;99819.66;4920272;28;99520;-63
2021/01/20 02:44:39;;;;;;;0.90;0.20;;;;;;;12.83;52.90;99813.78;4921900;28;97837;-64
2021/01/20 02:47:09;;;;;;;1.10;0.40;;;;;;;12.80;52.86;99807.06;4903436;28;98119;-63
2021/01/20 02:49:35;;;;;;;0.90;0.30;;;;;;;12.80;53.05;99800.84;4919287;28;117837;-62
2021/01/20 02:52:13;;;;;;;0.80;0.30;;;;;;;12.80;53.09;99801.63;4900203;28;115947;-63
2021/01/20 02:54:39;;;;;;;0.73;0.30;;;;;;;12.82;52.80;99804.88;4903391;28;98359;-62
2021/01/20 02:57:06;;;;;;;0.70;0.30;;;;;;;12.84;52.26;99799.94;4915537;28;121851;-62
2021/01/20 02:59:32;;;;;;;0.75;0.30;;;;;;;12.81;52.79;99789.75;4882461;28;122395;-64
2021/01/20 03:02:01;;;;;;;0.90;0.30;;;;;;;12.80;52.79;99787.31;4897897;28;127566;-62
2021/01/20 03:04:27;;;;;;;0.77;0.30;;;;;;;12.79;52.71;99794.63;4877743;28;97885;-63
2021/01/20 03:06:55;;;;;;;0.90;0.30;;;;;;;12.77;52.83;99796.81;4916528;28;97812;-62
2021/01/20 03:09:21;;;;;;;1.23;0.25;;;;;;;12.76;52.77;99793.31;4914524;28;98213;-63
2021/01/20 03:11:52;;;;;;;1.42;0.30;;;;;;;12.77;52.67;99797.66;4898319;28;128387;-63
2021/01/20 03:14:20;;;;;;;1.00;0.30;;;;;;;12.77;52.73;99804.94;4900142;28;99526;-63
2021/01/20 03:16:46;;;;;;;1.05;0.30;;;;;;;12.79;52.97;99786.53;4915609;28;110889;-62
2021/01/20 03:19:12;;;;;;;0.88;0.30;;;;;;;12.78;52.74;99793.84;4918076;28;127926;-62
2021/01/20 03:21:38;;;;;;;1.05;0.30;;;;;;;12.79;52.59;99789.22;4901564;28;126744;-62
2021/01/20 03:24:05;;;;;;;0.88;0.30;;;;;;;12.80;52.59;99787.31;4910925;28;127418;-62
2021/01/20 03:26:31;;;;;;;0.63;0.30;;;;;;;12.79;52.59;99778.41;4899564;28;98064;-63
2021/01/20 03:28:57;;;;;;;0.98;0.30;;;;;;;12.80;52.56;99769.19;4918663;28;98652;-63
2021/01/20 03:31:23;;;;;;;0.75;0.30;;;;;;;12.77;52.59;99770.59;4918315;28;128284;-62
2021/01/20 03:33:49;;;;;;;1.95;0.30;;;;;;;12.75;52.64;99772.78;4919664;28;127070;-62
2021/01/20 03:36:15;;;;;;;0.73;0.30;;;;;;;12.79;52.79;99764.88;4902324;28;116544;-62
2021/01/20 03:38:41;;;;;;;1.55;0.30;;;;;;;12.78;52.52;99766.78;4919515;28;126292;-63
2021/01/20 03:41:08;;;;;;;0.73;0.20;;;;;;;12.78;52.39;99761.38;4920244;28;98327;-62
2021/01/20 03:43:34;;;;;;;1.40;0.30;;;;;;;12.77;52.54;99762.50;4912736;28;112286;-63
2021/01/20 03:46:00;;;;;;;0.85;0.20;;;;;;;12.75;52.50;99758.47;4920379;28;98736;-63
2021/01/20 03:48:26;;;;;;;1.00;0.30;;;;;;;12.76;52.35;99760.88;4919289;28;121571;-62
2021/01/20 03:50:52;;;;;;;0.57;0.20;;;;;;;12.75;52.31;99755.78;4915133;28;99217;-62
2021/01/20 03:53:18;;;;;;;1.00;0.30;;;;;;;12.77;52.55;99750.84;4912050;28;127608;-63
2021/01/20 03:55:44;;;;;;;0.90;0.30;;;;;;;12.75;52.29;99750.34;4899464;28;98080;-63
2021/01/20 03:58:10;;;;;;;1.25;0.20;;;;;;;12.73;52.36;99739.03;4912167;28;98485;-62
2021/01/20 04:00:36;;;;;;;0.60;0.20;;;;;;;12.70;52.21;99740.44;4919826;28;98985;-63
2021/01/20 04:03:02;;;;;;;0.88;0.28;;;;;;;12.70;52.18;99735.03;4917241;28;127777;-63
2021/01/20 04:05:28;;;;;;;0.70;0.20;;;;;;;12.70;52.13;99736.94;4917054;28;116003;-64
2021/01/20 04:07:54;;;;;;;1.17;0.30;;;;;;;12.69;52.30;99744.25;4899773;28;126758;-64
2021/01/20 04:10:20;;;;;;;1.00;0.30;;;;;;;12.70;51.90;99735.03;4899188;28;98445;-63
2021/01/20 04:12:46;;;;;;;0.93;0.20;;;;;;;12.66;52.04;99742.13;4900016;28;126496;-62
2021/01/20 04:15:13;;;;;;;1.08;0.20;;;;;;;12.63;51.97;99731.13;4901625;28;122568;-62
2021/01/20 04:17:39;;;;;;;1.17;0.20;;;;;;;12.62;52.09;99737.63;4901086;28;127369;-63
2021/01/20 04:20:06;;;;;;;0.82;0.20;;;;;;;12.63;52.09;99731.13;4897940;28;127730;-62
2021/01/20 04:22:35;;;;;;;0.90;0.20;;;;;;;12.64;52.00;99730.00;4888051;28;101831;-62
2021/01/20 04:25:01;;;;;;;0.98;0.22;;;;;;;12.59;52.07;99736.31;4916638;28;105720;-63
2021/01/20 04:27:28;;;;;;;1.25;0.20;;;;;;;12.58;52.08;99736.63;4919261;28;113775;-63
2021/01/20 04:29:54;;;;;;;1.20;0.30;;;;;;;12.56;51.94;99733.41;4919304;28;99230;-62
2021/01/20 04:32:20;;;;;;;0.90;0.20;;;;;;;12.56;52.15;99719.88;4914867;28;98373;-63
2021/01/20 04:34:46;;;;;;;0.93;0.20;;;;;;;12.56;52.10;99733.41;4917608;28;97848;-62
2021/01/20 04:37:12;;;;;;;0.75;0.20;;;;;;;12.52;51.95;99723.19;4916066;28;126909;-62
2021/01/20 04:39:38;;;;;;;0.85;0.20;;;;;;;12.53;51.45;99727.47;4888655;28;127457;-62
2021/01/20 04:42:08;;;;;;;0.90;0.17;;;;;;;12.51;52.04;99723.50;4915830;28;128313;-62
2021/01/20 04:44:34;;;;;;;1.08;0.20;;;;;;;12.51;51.99;99721.59;4919058;28;97871;-62
2021/01/20 04:47:05;;;;;;;0.95;0.30;;;;;;;12.51;51.95;99721.59;4913256;28;127821;-63
2021/01/20 04:49:34;;;;;;;0.73;0.20;;;;;;;12.48;51.75;99719.47;4904391;28;97700;-62
2021/01/20 04:52:00;;;;;;;0.70;0.20;;;;;;;12.45;52.08;99709.25;4917630;28;98754;-61
2021/01/20 04:54:26;;;;;;;0.60;0.20;;;;;;;12.48;52.04;99707.84;4885076;28;122678;-62
2021/01/20 04:56:52;;;;;;;1.20;0.25;;;;;;;12.46;51.72;99701.97;4902803;28;126840;-63
2021/01/20 04:59:18;;;;;;;0.70;0.30;;;;;;;12.42;51.72;99707.16;4903629;28;128470;-61
2021/01/20 05:01:44;;;;;;;1.00;0.30;;;;;;;12.40;52.17;99701.25;4888188;28;128930;-63
2021/01/20 05:04:11;;;;;;;0.90;0.20;;;;;;;12.41;52.05;99704.72;4920126;28;122836;-62
2021/01/20 05:06:37;;;;;;;0.80;0.20;;;;;;;12.42;52.25;99698.25;4920788;28;98669;-62
2021/01/20 05:09:03;;;;;;;1.02;0.20;;;;;;;12.39;51.87;99691.53;4907978;28;98490;-62
2021/01/20 05:11:44;;;;;;;0.70;0.20;;;;;;;12.38;51.93;99684.53;4921210;28;110839;-62
2021/01/20 05:14:15;;;;;;;0.95;0.20;;;;;;;12.38;51.97;99689.94;4901599;28;98040;-62
2021/01/20 05:16:42;;;;;;;1.08;0.30;;;;;;;12.41;51.87;99688.53;4902272;28;98339;-62
2021/01/20 05:19:08;;;;;;;0.65;0.22;;;;;;;12.38;52.01;99689.94;4895541;28;97972;-63
2021/01/20 05:21:34;;;;;;;0.60;0.20;;;;;;;12.47;51.76;99684.63;4921614;28;98514;-63
2021/01/20 05:24:23;;;;;;;0.70;0.10;;;;;;;12.39;51.83;99680.72;4896853;28;102079;-63
2021/01/20 05:26:50;;;;;;;0.95;0.28;;;;;;;12.41;51.82;99677.72;4902841;28;98948;-63
2021/01/20 05:29:16;;;;;;;0.93;0.30;;;;;;;12.43;51.57;99684.44;4907470;28;106765;-63
2021/01/20 05:31:42;;;;;;;1.00;0.30;;;;;;;12.44;51.49;99682.53;4921310;28;119539;-62
2021/01/20 05:34:34;;;;;;;0.70;0.20;;;;;;;12.44;51.51;99677.13;4922684;28;98299;-62
2021/01/20 05:37:04;;;;;;;0.93;0.22;;;;;;;12.45;51.50;99676.00;4920574;28;97788;-62
2021/01/20 05:39:31;;;;;;;0.90;0.20;;;;;;;12.46;51.67;99675.72;4916576;28;98714;-62
2021/01/20 05:42:15;;;;;;;0.90;0.20;;;;;;;12.47;51.60;99671.13;4902400;28;98182;-63
2021/01/20 05:44:44;;;;;;;0.90;0.20;;;;;;;12.48;51.57;99675.41;4913581;28;123121;-62
2021/01/20 05:47:11;;;;;;;0.80;0.20;;;;;;;12.50;51.46;99667.84;4864596;28;118665;-62
2021/01/20 05:49:37;;;;;;;0.55;0.20;;;;;;;12.53;51.55;99664.50;4884708;28;98210;-63
2021/01/20 05:52:13;;;;;;;0.60;0.20;;;;;;;12.53;51.35;99657.19;4900380;28;121904;-63
2021/01/20 05:54:39;;;;;;;0.80;0.20;;;;;;;12.52;51.52;99644.78;4901872;28;98041;-62
2021/01/20 05:57:13;;;;;;;0.80;0.20;;;;;;;12.51;51.41;99634.28;4911898;28;114882;-63
2021/01/20 05:59:40;;;;;;;0.50;0.20;;;;;;;12.54;51.39;99639.09;4897087;28;98932;-62
2021/01/20 06:02:07;;;;;;;0.90;0.20;;;;;;;12.54;51.47;99644.50;4916970;28;97889;-62
2021/01/20 06:04:33;;;;;;;1.23;0.20;;;;;;;12.52;51.36;99636.69;4895337;28;106721;-63
2021/01/20 06:07:06;;;;;;;0.88;0.30;;;;;;;12.50;51.69;99654.31;4902471;28;114566;-63
2021/01/20 06:09:37;;;;;;;0.90;0.30;;;;;;;12.50;51.59;99662.44;4920124;28;98522;-62
2021/01/20 06:12:07;;;;;;;0.80;0.30;;;;;;;12.49;51.35;99656.19;4918639;28;97960;-62
2021/01/20 06:14:33;;;;;;;0.80;0.25;;;;;;;12.49;51.41;99671.63;4917348;28;97956;-63
2021/01/20 06:17:30;;;;;;;0.90;0.30;;;;;;;12.43;51.64;99662.00;4906929;28;98863;-62
2021/01/20 06:20:00;;;;;;;1.00;0.30;;;;;;;12.46;51.43;99667.63;4909835;28;99021;-62
2021/01/20 06:22:27;;;;;;;1.00;0.20;;;;;;;12.45;51.53;99663.28;4915618;28;98212;-62
2021/01/20 06:25:02;;;;;;;0.85;0.32;;;;;;;12.45;51.45;99662.50;4917958;28;114090;-62
2021/01/20 06:28:06;;;;;;;0.70;0.30;;;;;;;12.40;51.66;99658.00;4916839;28;98480;-63
2021/01/20 06:30:41;;;;;;;0.90;0.20;;;;;;;12.40;51.71;99657.19;4916365;28;98647;-63
2021/01/20 06:33:10;;;;;;;1.05;0.30;;;;;;;12.41;51.52;99656.09;4903344;28;98111;-63
2021/01/20 06:35:47;;;;;;;1.13;0.30;;;;;;;12.40;51.65;99662.59;4902932;28;97808;-63
2021/01/20 06:38:28;;;;;;;0.70;0.20;;;;;;;12.37;51.31;99664.00;4913321;28;117653;-61
2021/01/20 06:41:03;;;;;;;1.33;0.30;;;;;;;12.37;51.43;99668.59;4911881;28;99098;-63
2021/01/20 06:43:36;;;;;;;0.60;0.20;;;;;;;12.37;51.86;99666.69;4915638;28;98710;-63
2021/01/20 06:46:25;;;;;;;0.60;0.20;;;;;;;12.33;51.67;99673.00;4903584;28;97779;-62
2021/01/20 06:48:54;;;;;;;0.82;0.30;;;;;;;12.33;51.40;99668.38;4919133;28;98533;-63
2021/01/20 06:51:21;;;;;;;1.40;0.22;;;;;;;12.33;51.74;99670.28;4920790;28;99244;-62
2021/01/20 06:54:10;;;;;;;0.90;0.40;;;;;;;12.30;51.54;99677.13;4901624;28;120408;-61
2021/01/20 06:56:47;;;;;;;1.40;0.30;;;;;;;12.28;51.66;99680.09;4891808;28;98013;-62
2021/01/20 06:59:27;;;;;;;0.80;0.30;;;;;;;12.30;51.52;99669.00;4913305;28;98698;-63
2021/01/20 07:02:02;;;;;;;1.00;0.28;;;;;;;12.26;51.61;99676.91;4920910;28;98328;-62
2021/01/20 07:04:38;;;;;;;0.90;0.30;;;;;;;12.27;51.45;99681.19;4921367;28;98172;-62
2021/01/20 07:07:07;;;;;;;1.05;0.30;;;;;;;12.28;51.53;99676.59;4917344;28;97993;-62
2021/01/20 07:09:57;;;;;;;0.85;0.30;;;;;;;12.30;51.52;99674.41;4916164;28;98734;-62
2021/01/20 07:12:24;;;;;;;0.98;0.25;;;;;;;12.33;51.40;99671.09;4915475;28;98537;-62
2021/01/20 07:14:51;;;;;;;0.90;0.30;;;;;;;12.31;51.55;99662.50;4896328;28;120390;-62
2021/01/20 07:17:17;;;;;;;0.77;0.30;;;;;;;12.36;51.36;99667.00;4896320;28;114703;-63
2021/01/20 07:19:45;;;;;;;0.80;0.30;;;;;;;12.38;51.13;99667.50;4912550;28;108343;-62
2021/01/20 07:22:11;;;;;;;1.52;0.40;;;;;;;12.39;51.19;99672.63;4894251;28;98609;-62
2021/01/20 07:24:37;;;;;;;1.33;0.45;;;;;;;12.44;51.34;99679.81;4896426;28;114843;-62
2021/01/20 07:27:06;;;;;;;1.60;0.70;;;;;;;12.45;51.30;99676.81;4898578;28;122719;-62
2021/01/20 07:29:32;;;;;;;2.70;0.80;;;;;;;12.50;51.25;99674.03;4910129;28;99291;-62
2021/01/20 07:31:59;;;;;;;1.73;0.90;;;;;;;12.50;51.57;99674.03;4916280;28;98990;-63
2021/01/20 07:34:40;;;;;;;1.35;0.70;;;;;;;12.53;51.51;99680.72;4910728;28;97766;-62
2021/01/20 07:37:16;;;;;;;1.48;0.90;;;;;;;12.55;51.91;99680.44;4915967;28;97947;-62
2021/01/20 07:39:43;;;;;;;2.47;1.45;;;;;;;12.62;51.83;99672.75;4917124;28;98333;-63
2021/01/20 07:42:09;;;;;;;2.97;1.38;;;;;;;12.70;51.87;99685.56;4916870;28;119599;-63
2021/01/20 07:44:36;;;;;;;2.83;1.90;;;;;;;12.72;51.95;99673.34;4915460;28;114079;-62
2021/01/20 07:47:04;;;;;;;3.67;1.50;;;;;;;12.80;52.05;99673.72;4918329;28;113550;-63
2021/01/20 07:49:31;;;;;;;3.10;1.75;;;;;;;12.90;51.94;99673.53;4893765;28;98617;-63
2021/01/20 07:52:10;;;;;;;2.67;1.42;;;;;;;13.05;51.79;99675.13;4915321;28;111016;-63
2021/01/20 07:54:44;;;;;;;2.75;1.50;;;;;;;13.15;52.02;99675.69;4915565;28;112439;-63
2021/01/20 07:57:19;;;;;;;3.05;1.48;;;;;;;13.17;52.00;99665.41;4920448;28;97842;-63
2021/01/20 07:59:45;;;;;;;2.15;1.30;;;;;;;13.26;52.29;99674.41;4917059;28;98747;-62
2021/01/20 08:02:17;;;;;;;1.83;0.90;;;;;;;13.40;51.87;99674.41;4917066;28;119630;-62
2021/01/20 08:04:43;;;;;;;1.73;1.00;;;;;;;13.50;51.90;99659.81;4919916;28;126615;-63
2021/01/20 08:07:12;;;;;;;1.30;0.70;;;;;;;13.65;51.96;99655.97;4916688;28;122462;-63
2021/01/20 08:09:45;;;;;;;2.00;0.88;;;;;;;14.03;51.06;99656.41;4903445;28;98544;-63
2021/01/20 08:12:22;;;;;;;1.73;0.80;;;;;;;14.34;50.60;99647.44;4919998;28;99346;-62
2021/01/20 08:14:48;;;;;;;1.77;0.80;;;;;;;14.38;50.95;99653.84;4902241;28;98202;-62
2021/01/20 08:17:14;;;;;;;1.45;0.60;;;;;;;14.64;50.60;99657.50;4904699;28;120905;-62
2021/01/20 08:19:41;;;;;;;1.50;0.65;;;;;;;15.14;49.88;99648.22;4905586;28;126640;-63
2021/01/20 08:22:13;;;;;;;1.35;0.55;;;;;;;15.55;49.17;99638.81;4918864;28;98616;-63
2021/01/20 08:24:50;;;;;;;1.23;0.60;;;;;;;15.85;48.84;99646.03;4919242;28;98012;-63
2021/01/20 08:27:28;;;;;;;1.60;0.50;;;;;;;16.17;48.31;99647.41;4918549;28;97964;-63
2021/01/20 08:29:56;;;;;;;1.30;0.50;;;;;;;16.38;48.62;99644.75;4921325;28;98204;-63
2021/01/20 08:32:22;;;;;;;1.00;0.40;;;;;;;16.68;48.52;99648.31;4910314;28;98746;-63
2021/01/20 08:34:49;;;;;;;1.15;0.30;;;;;;;16.80;48.63;99649.59;4901133;28;98333;-62
2021/01/20 08:37:20;;;;;;;1.48;0.50;;;;;;;17.00;48.71;99651.53;4904016;28;98013;-63
2021/01/20 08:39:57;;;;;;;1.20;0.40;;;;;;;17.36;48.32;99642.81;4886848;28;98493;-63
2021/01/20 08:42:35;;;;;;;1.15;0.38;;;;;;;17.69;48.12;99646.72;4901356;28;102494;-62
2021/01/20 08:45:14;;;;;;;1.35;0.40;;;;;;;18.05;48.44;99657.00;4901416;28;97606;-62
2021/01/20 08:48:06;;;;;;;1.10;0.30;;;;;;;18.30;48.29;99661.34;4904692;28;98029;-62
2021/01/20 08:50:35;;;;;;;1.53;0.40;;;;;;;18.59;48.27;99665.06;4904291;28;99239;-64
2021/01/20 08:53:09;;;;;;;1.02;0.45;;;;;;;18.75;48.61;99665.22;4899340;28;106868;-63
2021/01/20 08:55:48;;;;;;;1.00;0.30;;;;;;;18.85;48.79;99662.00;4905062;28;98183;-63
2021/01/20 08:58:31;;;;;;;0.90;0.38;;;;;;;18.56;49.54;99663.78;4915066;28;97945;-63
2021/01/20 09:01:21;;;;;;;0.90;0.40;;;;;;;19.02;48.90;99677.34;4907401;28;98070;-64
2021/01/20 09:03:55;;;;;;;1.13;0.40;;;;;;;19.33;48.98;99669.34;4912875;28;98100;-64
2021/01/20 09:06:21;;;;;;;0.73;0.30;;;;;;;19.48;49.07;99678.75;4922821;28;98614;-63
2021/01/20 09:08:47;;;;;;;1.05;0.40;;;;;;;19.78;48.99;99682.00;4922310;28;108641;-62
2021/01/20 09:11:13;;;;;;;1.27;0.45;;;;;;;19.94;49.22;99673.84;4922113;28;127937;-62
2021/01/20 09:13:39;;;;;;;1.27;0.40;;;;;;;19.66;50.01;99682.06;4922511;28;109498;-64
2021/01/20 09:16:07;;;;;;;1.20;0.40;;;;;;;19.23;51.07;99679.97;4922805;28;98217;-63
2021/01/20 09:18:33;;;;;;;0.93;0.32;;;;;;;19.13;50.99;99687.47;4922607;28;97782;-64
2021/01/20 09:21:00;;;;;;;0.82;0.40;;;;;;;19.40;50.47;99679.69;4921321;28;128900;-62
2021/01/20 09:23:27;;;;;;;1.13;0.30;;;;;;;19.45;50.87;99679.44;4922145;28;98826;-64
2021/01/20 09:25:55;;;;;;;1.00;0.40;;;;;;;19.14;51.52;99685.56;4914450;28;99081;-64
2021/01/20 09:28:22;;;;;;;0.80;0.40;;;;;;;19.13;51.36;99683.94;4907798;28;97707;-62
2021/01/20 09:30:48;;;;;;;0.90;0.50;;;;;;;19.25;51.06;99688.59;4920994;28;99157;-64
2021/01/20 09:33:14;;;;;;;1.23;0.50;;;;;;;19.41;51.08;99688.69;4920092;28;100681;-62
2021/01/20 09:35:41;;;;;;;0.70;0.30;;;;;;;19.38;51.35;99692.91;4906191;28;98589;-63
2021/01/20 09:38:07;;;;;;;0.90;0.40;;;;;;;19.20;51.58;99691.56;4903766;28;98220;-63
2021/01/20 09:40:33;;;;;;;0.90;0.40;;;;;;;18.92;52.21;99688.75;4903477;28;98346;-64
2021/01/20 09:42:59;;;;;;;1.80;0.30;;;;;;;18.56;52.69;99687.56;4902227;28;111015;-63
2021/01/20 09:45:27;;;;;;;1.20;0.52;;;;;;;18.27;53.08;99685.78;4914754;28;127669;-63
2021/01/20 09:48:02;;;;;;;1.05;0.40;;;;;;;18.08;53.13;99694.50;4913094;28;98111;-63
2021/01/20 09:50:33;;;;;;;1.00;0.32;;;;;;;18.10;52.50;99689.50;4921544;28;98973;-63
2021/01/20 09:52:59;;;;;;;1.13;0.25;;;;;;;18.68;52.26;99684.84;4914389;28;98627;-64
2021/01/20 09:55:25;;;;;;;0.88;0.35;;;;;;;19.17;51.36;99679.38;4900817;28;98142;-62
2021/01/20 09:57:51;;;;;;;1.30;0.40;;;;;;;19.35;51.35;99683.47;4891946;28;121068;-64
2021/01/20 10:00:17;;;;;;;1.15;0.30;;;;;;;19.52;51.23;99676.94;4903297;28;128545;-62
2021/01/20 10:02:43;;;;;;;1.08;0.30;;;;;;;19.64;51.49;99683.53;4921942;28;117512;-64
2021/01/20 10:05:10;;;;;;;1.58;0.32;;;;;;;19.73;51.33;99682.25;4921883;28;123030;-62
2021/01/20 10:07:37;;;;;;;1.67;0.50;;;;;;;19.78;51.51;99683.94;4903503;28;100565;-62
2021/01/20 10:10:13;;;;;;;1.02;0.30;;;;;;;19.89;51.27;99681.53;4922046;28;98896;-61
2021/01/20 10:12:40;;;;;;;1.35;0.45;;;;;;;19.72;51.70;99677.91;4915003;28;98425;-62
2021/01/20 10:15:07;;;;;;;1.25;0.40;;;;;;;19.56;51.75;99680.56;4901565;28;97897;-62
2021/01/20 10:17:33;;;;;;;1.17;0.40;;;;;;;19.29;52.22;99689.50;4915847;28;100011;-62
2021/01/20 10:19:59;;;;;;;0.70;0.30;;;;;;;19.09;52.43;99674.84;4922643;28;117331;-62
2021/01/20 10:22:25;;;;;;;1.30;0.40;;;;;;;18.87;52.73;99676.91;4920047;28;118369;-63
2021/01/20 10:24:52;;;;;;;1.20;0.30;;;;;;;18.74;52.93;99672.59;4920668;28;126590;-62
2021/01/20 10:27:18;;;;;;;1.20;0.50;;;;;;;18.72;52.76;99672.13;4904491;28;99438;-62
2021/01/20 10:29:44;;;;;;;1.10;0.32;;;;;;;18.69;52.98;99674.72;4916727;28;98779;-63
2021/01/20 10:32:10;;;;;;;1.13;0.30;;;;;;;18.47;53.34;99665.03;4882872;28;128174;-63
2021/01/20 10:34:36;;;;;;;1.70;0.30;;;;;;;18.25;53.34;99661.59;4916720;28;98018;-62
2021/01/20 10:37:03;;;;;;;2.03;0.30;;;;;;;18.01;54.05;99659.59;4901353;28;98275;-63
2021/01/20 10:39:29;;;;;;;1.55;0.40;;;;;;;17.82;53.96;99662.03;4916283;28;98027;-63
2021/01/20 10:41:55;;;;;;;1.45;0.38;;;;;;;17.64;54.15;99653.97;4918051;28;128389;-62
2021/01/20 10:44:21;;;;;;;0.90;0.30;;;;;;;17.58;53.97;99652.56;4892755;28;129600;-62
2021/01/20 10:46:48;;;;;;;1.02;0.30;;;;;;;17.64;53.76;99651.25;4916840;28;109370;-63
2021/01/20 10:49:14;;;;;;;0.98;0.25;;;;;;;17.76;53.40;99655.16;4922114;28;98577;-62
2021/01/20 10:51:40;;;;;;;1.17;0.30;;;;;;;17.86;53.09;99646.59;4918917;28;129159;-63
2021/01/20 10:54:06;;;;;;;1.20;0.30;;;;;;;17.85;53.07;99645.00;4920975;28;120008;-63
2021/01/20 10:56:32;;;;;;;1.20;0.28;;;;;;;17.82;52.71;99642.94;4921428;28;97889;-63
2021/01/20 10:58:58;;;;;;;0.60;0.25;;;;;;;17.90;52.80;99636.59;4894909;28;110368;-63
2021/01/20 11:01:24;;;;;;;0.85;0.30;;;;;;;18.02;52.38;99641.31;4903138;28;98636;-62
2021/01/20 11:03:51;;;;;;;1.50;0.30;;;;;;;18.08;52.40;99627.13;4912308;28;126110;-63
2021/01/20 11:06:17;;;;;;;0.75;0.20;;;;;;;18.14;52.24;99631.22;4920608;28;122627;-63
2021/01/20 11:08:43;;;;;;;1.48;0.20;;;;;;;18.19;52.16;99638.38;4913607;28;98550;-62
2021/01/20 11:11:11;;;;;;;2.58;0.30;;;;;;;18.27;52.03;99631.22;4920889;28;98434;-63
2021/01/20 11:13:38;;;;;;;1.00;0.20;;;;;;;18.33;51.45;99624.44;4913533;28;98054;-62
2021/01/20 11:16:04;;;;;;;0.98;0.30;;;;;;;18.28;51.64;99624.66;4903557;28;97904;-63
2021/01/20 11:18:34;;;;;;;0.82;0.20;;;;;;;18.20;51.19;99625.56;4911702;28;127852;-62
2021/01/20 11:21:00;;;;;;;0.73;0.20;;;;;;;18.11;50.88;99612.78;4920065;28;98702;-62
2021/01/20 11:23:27;;;;;;;0.80;0.20;;;;;;;18.08;51.32;99609.97;4902485;28;98791;-62
2021/01/20 11:25:54;;;;;;;1.00;0.30;;;;;;;17.99;51.45;99622.88;4921202;28;97710;-62
2021/01/20 11:28:20;;;;;;;0.52;0.20;;;;;;;18.02;51.94;99620.28;4912226;28;99381;-62
2021/01/20 11:30:46;;;;;;;0.90;0.28;;;;;;;18.00;52.02;99622.56;4921502;28;98320;-62
2021/01/20 11:33:12;;;;;;;0.80;0.30;;;;;;;17.99;52.09;99620.94;4910791;28;98629;-63
2021/01/20 11:35:39;;;;;;;0.60;0.20;;;;;;;17.98;51.62;99613.91;4917386;28;122581;-64
2021/01/20 11:38:05;;;;;;;0.57;0.20;;;;;;;17.95;51.71;99616.50;4910059;28;98217;-64
2021/01/20 11:40:33;;;;;;;0.70;0.20;;;;;;;17.90;51.65;99622.97;4902997;28;99056;-64